Time;durP1;ratioP1;P1;durP2;ratioP2;P2;SDS_P1;SDS_P2;PMS_P1;PMS_P2;Temp;Humidity;BMP_temperature;BMP_pressure;BME280_temperature;BME280_humidity;BME280_pressure;Samples;Min_cycle;Max_cycle;Signal;HPM_P1;HPM_P2
2021/03/25 00:00:24;;;;;;;58.33;30.70;;;7.80;73.40;;;;;;5116324;28;20100;-36
2021/03/25 00:02:51;;;;;;;62.05;29.00;;;7.90;73.30;;;;;;5117888;28;20024;-36
2021/03/25 00:05:18;;;;;;;54.40;28.02;;;7.60;73.90;;;;;;5117724;28;20085;-36
2021/03/25 00:07:44;;;;;;;57.40;28.23;;;7.50;74.10;;;;;;5117164;28;20102;-36
2021/03/25 00:10:14;;;;;;;54.53;28.65;;;7.50;74.80;;;;;;5114856;28;20110;-36
2021/03/25 00:12:39;;;;;;;56.10;27.85;;;7.60;73.90;;;;;;5116272;28;20482;-36
2021/03/25 00:15:06;;;;;;;52.35;27.90;;;7.40;74.60;;;;;;5115941;28;20027;-37
2021/03/25 00:17:32;;;;;;;58.20;28.63;;;7.30;74.90;;;;;;5115977;28;20023;-36
2021/03/25 00:19:58;;;;;;;56.10;29.75;;;7.20;75.70;;;;;;5114656;28;20015;-37
2021/03/25 00:22:23;;;;;;;57.15;30.15;;;7.00;76.10;;;;;;5115876;28;20023;-37
2021/03/25 00:24:49;;;;;;;60.13;31.13;;;7.10;76.50;;;;;;5115773;28;20027;-37
2021/03/25 00:27:15;;;;;;;62.15;29.17;;;7.20;76.00;;;;;;5114587;28;20019;-37
2021/03/25 00:29:40;;;;;;;61.35;32.10;;;7.10;76.10;;;;;;5116141;27;20028;-37
2021/03/25 00:32:07;;;;;;;55.20;30.92;;;7.20;75.60;;;;;;5115960;28;20028;-37
2021/03/25 00:34:32;;;;;;;69.82;33.88;;;7.00;75.70;;;;;;5115616;28;20135;-36
2021/03/25 00:36:58;;;;;;;67.32;34.20;;;6.80;76.30;;;;;;5115739;28;20095;-36
2021/03/25 00:39:24;;;;;;;62.88;30.67;;;6.70;76.80;;;;;;5115023;28;20508;-36
2021/03/25 00:41:49;;;;;;;60.20;28.10;;;6.60;77.20;;;;;;5115525;28;20051;-36
2021/03/25 00:44:15;;;;;;;63.38;31.25;;;6.50;77.30;;;;;;5115619;28;20057;-36
2021/03/25 00:46:41;;;;;;;60.25;29.50;;;6.50;77.70;;;;;;5115725;28;20028;-36
2021/03/25 00:49:08;;;;;;;59.15;29.70;;;6.40;78.10;;;;;;5115172;28;20055;-36
2021/03/25 00:51:33;;;;;;;60.45;33.63;;;6.40;78.30;;;;;;5115620;28;20416;-36
2021/03/25 00:53:59;;;;;;;61.15;28.00;;;6.60;77.80;;;;;;5115606;28;20031;-36
2021/03/25 00:56:25;;;;;;;56.05;28.42;;;6.70;76.90;;;;;;5115305;28;20125;-36
2021/03/25 00:58:50;;;;;;;66.97;29.05;;;6.50;77.70;;;;;;5116155;28;20047;-36
2021/03/25 01:01:16;;;;;;;60.83;31.42;;;6.50;78.10;;;;;;5115218;28;20123;-36
2021/03/25 01:03:42;;;;;;;62.80;31.60;;;6.50;78.30;;;;;;5115471;28;20470;-36
2021/03/25 01:06:08;;;;;;;63.85;30.95;;;6.50;78.30;;;;;;5115428;28;20107;-36
2021/03/25 01:08:35;;;;;;;71.03;31.40;;;6.70;77.60;;;;;;5115343;28;20023;-36
2021/03/25 01:11:12;;;;;;;61.45;30.23;;;6.80;77.50;;;;;;5114867;28;20098;-36
2021/03/25 01:13:44;;;;;;;55.80;28.92;;;6.50;78.00;;;;;;5114853;28;20034;-36
2021/03/25 01:16:16;;;;;;;71.75;33.17;;;6.40;78.80;;;;;;5115063;28;20520;-36
2021/03/25 01:18:42;;;;;;;62.67;30.08;;;6.40;79.10;;;;;;5115033;28;20026;-36
2021/03/25 01:21:08;;;;;;;71.18;31.90;;;6.30;78.90;;;;;;5114707;28;20471;-36
2021/03/25 01:23:33;;;;;;;69.50;31.92;;;6.30;79.20;;;;;;5114662;28;20023;-36
2021/03/25 01:25:59;;;;;;;61.47;30.67;;;6.50;78.50;;;;;;5114825;28;20031;-36
2021/03/25 01:28:25;;;;;;;69.57;32.13;;;6.50;78.40;;;;;;5114795;28;20524;-36
2021/03/25 01:30:50;;;;;;;62.92;32.97;;;6.40;78.90;;;;;;5114831;28;20035;-36
2021/03/25 01:33:19;;;;;;;56.90;32.17;;;6.50;78.50;;;;;;5114840;28;20023;-36
2021/03/25 01:35:45;;;;;;;63.45;31.60;;;6.60;78.00;;;;;;5114992;28;20024;-36
2021/03/25 01:38:13;;;;;;;64.50;31.83;;;6.50;78.40;;;;;;5115223;28;20019;-36
2021/03/25 01:40:45;;;;;;;59.35;30.75;;;6.80;77.80;;;;;;5115132;28;20034;-36
2021/03/25 01:43:19;;;;;;;72.72;33.70;;;6.80;77.00;;;;;;5114432;28;20053;-36
2021/03/25 01:45:53;;;;;;;58.80;30.83;;;6.80;77.60;;;;;;5114763;28;20019;-36
2021/03/25 01:48:23;;;;;;;72.65;34.78;;;6.80;77.80;;;;;;5114113;28;20057;-36
2021/03/25 01:50:50;;;;;;;73.38;33.38;;;6.70;78.40;;;;;;5114997;28;20020;-36
2021/03/25 01:53:30;;;;;;;66.18;32.83;;;6.80;78.10;;;;;;5114446;28;20499;-36
2021/03/25 01:56:14;;;;;;;62.17;32.45;;;6.80;77.50;;;;;;5113119;28;20425;-36
2021/03/25 01:59:27;;;;;;;68.90;32.55;;;6.90;77.40;;;;;;5114033;28;20028;-36
2021/03/25 02:02:14;;;;;;;66.57;32.22;;;6.90;77.30;;;;;;5113699;28;20472;-36
2021/03/25 02:04:43;;;;;;;74.35;34.45;;;6.80;77.60;;;;;;5113736;28;20020;-36
2021/03/25 02:07:39;;;;;;;74.15;34.67;;;7.20;76.80;;;;;;5113676;28;20051;-36
2021/03/25 02:10:15;;;;;;;76.35;33.38;;;7.30;75.90;;;;;;5113944;28;20356;-36
2021/03/25 02:13:02;;;;;;;73.85;33.42;;;7.10;76.50;;;;;;5113898;28;20447;-36
2021/03/25 02:15:59;;;;;;;68.43;35.95;;;6.90;77.70;;;;;;5113714;28;20038;-37
2021/03/25 02:18:56;;;;;;;69.93;33.85;;;6.80;77.90;;;;;;5113543;28;20102;-36
2021/03/25 02:21:30;;;;;;;64.25;33.47;;;7.40;76.10;;;;;;5104797;28;20047;-35
2021/03/25 02:24:22;;;;;;;67.95;34.28;;;7.40;75.90;;;;;;5113867;28;20031;-36
2021/03/25 02:27:03;;;;;;;72.20;34.60;;;7.40;76.00;;;;;;5111120;28;20044;-35
2021/03/25 02:29:38;;;;;;;75.50;34.42;;;7.30;76.20;;;;;;5113943;28;20034;-35
2021/03/25 02:32:08;;;;;;;63.78;33.83;;;7.40;76.20;;;;;;5113607;28;20027;-36
2021/03/25 02:34:39;;;;;;;89.50;39.33;;;7.40;76.10;;;;;;5114959;28;20152;-36
2021/03/25 02:37:17;;;;;;;73.60;35.10;;;7.40;76.20;;;;;;5113519;28;20503;-36
2021/03/25 02:40:04;;;;;;;67.82;34.50;;;7.30;76.70;;;;;;5113617;28;20045;-36
2021/03/25 02:42:43;;;;;;;74.82;37.13;;;7.30;77.00;;;;;;5113129;28;20020;-36
2021/03/25 02:45:27;;;;;;;75.90;37.15;;;7.70;75.60;;;;;;5113823;28;20028;-36
2021/03/25 02:47:58;;;;;;;78.00;37.28;;;7.80;75.30;;;;;;5113497;28;20138;-36
2021/03/25 02:50:34;;;;;;;75.85;38.17;;;7.80;75.10;;;;;;5113777;28;20027;-36
2021/03/25 02:53:30;;;;;;;77.13;37.42;;;7.50;76.00;;;;;;5113724;28;20023;-36
2021/03/25 02:55:59;;;;;;;79.22;38.55;;;7.40;76.60;;;;;;5111350;28;20073;-36
2021/03/25 02:58:28;;;;;;;83.00;38.08;;;7.30;77.30;;;;;;5113303;28;20024;-36
2021/03/25 03:01:00;;;;;;;80.45;38.67;;;7.30;77.50;;;;;;5113651;28;20019;-36
2021/03/25 03:03:36;;;;;;;84.28;39.55;;;7.40;77.00;;;;;;5116010;28;20024;-36
2021/03/25 03:06:04;;;;;;;77.57;39.13;;;7.40;77.30;;;;;;5117523;28;20024;-36
2021/03/25 03:08:44;;;;;;;89.10;39.83;;;7.60;76.50;;;;;;5117306;28;20379;-36
2021/03/25 03:11:16;;;;;;;86.18;39.60;;;7.30;77.10;;;;;;5117122;28;20020;-36
2021/03/25 03:13:49;;;;;;;77.22;37.30;;;7.20;78.00;;;;;;5117208;28;20051;-36
2021/03/25 03:16:20;;;;;;;77.50;38.97;;;7.10;78.40;;;;;;5117332;28;20024;-36
2021/03/25 03:18:45;;;;;;;;;;;7.20;78.30;;;;;;5117885;28;20020;-36
2021/03/25 03:21:18;;;;;;;81.13;37.53;;;7.30;77.90;;;;;;5117231;28;19904;-36
2021/03/25 03:23:44;;;;;;;76.55;38.58;;;7.30;77.90;;;;;;5117050;27;20421;-36
2021/03/25 03:26:15;;;;;;;80.28;39.60;;;7.10;78.30;;;;;;5116898;28;20105;-36
2021/03/25 03:28:47;;;;;;;86.90;39.92;;;7.20;78.20;;;;;;5115866;28;20027;-36
2021/03/25 03:31:21;;;;;;;81.28;38.80;;;7.40;77.50;;;;;;5117070;28;20027;-36
2021/03/25 03:33:51;;;;;;;78.00;38.20;;;7.30;77.70;;;;;;5117232;28;20031;-35
2021/03/25 03:36:21;;;;;;;80.93;38.85;;;7.40;77.20;;;;;;5116740;28;20408;-35
2021/03/25 03:38:50;;;;;;;81.87;39.67;;;7.30;77.90;;;;;;5117282;28;20034;-36
2021/03/25 03:41:25;;;;;;;77.15;41.20;;;7.30;77.80;;;;;;5116956;28;20481;-36
2021/03/25 03:43:50;;;;;;;75.10;39.70;;;7.30;78.20;;;;;;5117178;28;20023;-37
2021/03/25 03:46:22;;;;;;;78.32;38.85;;;7.30;77.70;;;;;;5116854;28;20027;-36
2021/03/25 03:48:54;;;;;;;78.90;38.42;;;7.30;77.60;;;;;;5116414;28;20047;-36
2021/03/25 03:51:28;;;;;;;90.28;44.08;;;7.30;78.10;;;;;;5116844;28;20070;-35
2021/03/25 03:53:56;;;;;;;89.22;42.80;;;7.40;77.60;;;;;;5116803;28;20062;-35
2021/03/25 03:56:33;;;;;;;93.68;41.65;;;7.30;77.90;;;;;;5116356;28;20027;-35
2021/03/25 03:59:07;;;;;;;77.05;37.50;;;7.40;77.70;;;;;;5116451;27;20024;-37
2021/03/25 04:01:40;;;;;;;87.97;40.08;;;7.20;78.30;;;;;;5117200;28;20023;-36
2021/03/25 04:04:13;;;;;;;66.28;36.78;;;7.30;78.40;;;;;;5116274;28;20035;-36
2021/03/25 04:06:45;;;;;;;74.60;37.63;;;7.30;78.30;;;;;;5116229;28;20479;-35
2021/03/25 04:09:44;;;;;;;82.90;40.38;;;7.30;78.30;;;;;;5116453;28;20028;-37
2021/03/25 04:12:16;;;;;;;78.22;39.17;;;7.50;77.30;;;;;;5116584;28;20076;-36
2021/03/25 04:14:51;;;;;;;77.75;41.10;;;7.40;77.70;;;;;;5114880;28;20020;-36
2021/03/25 04:17:27;;;;;;;76.03;40.50;;;7.30;77.80;;;;;;5116074;27;20035;-36
2021/03/25 04:19:56;;;;;;;82.60;38.58;;;7.30;78.10;;;;;;5116311;28;20020;-36
2021/03/25 04:22:26;;;;;;;88.95;42.92;;;7.40;77.90;;;;;;5115923;28;20023;-37
2021/03/25 04:25:05;;;;;;;65.93;31.65;;;7.60;77.00;;;;;;5116184;27;20495;-36
2021/03/25 04:27:42;;;;;;;67.70;32.78;;;7.30;77.40;;;;;;5116007;28;20163;-36
2021/03/25 04:30:23;;;;;;;70.32;35.85;;;7.10;78.10;;;;;;5116095;28;20019;-36
2021/03/25 04:32:49;;;;;;;63.35;32.15;;;7.00;78.90;;;;;;5116663;28;20023;-36
2021/03/25 04:35:16;;;;;;;59.22;31.27;;;7.00;78.70;;;;;;5115618;28;20019;-37
2021/03/25 04:37:42;;;;;;;64.38;31.73;;;6.90;79.00;;;;;;5114411;28;20053;-35
2021/03/25 04:40:14;;;;;;;58.38;30.75;;;6.80;79.50;;;;;;5115615;28;20104;-35
2021/03/25 04:42:45;;;;;;;59.22;31.30;;;6.80;79.70;;;;;;5115747;28;20063;-36
2021/03/25 04:45:28;;;;;;;69.20;34.17;;;6.70;80.10;;;;;;5115659;28;20038;-35
2021/03/25 04:48:00;;;;;;;73.63;35.47;;;6.50;80.60;;;;;;5115337;28;20055;-36
2021/03/25 04:50:34;;;;;;;85.88;38.72;;;6.30;81.00;;;;;;5115529;28;20024;-36
2021/03/25 04:53:23;;;;;;;72.53;35.25;;;6.30;81.50;;;;;;5115293;28;20020;-36
2021/03/25 04:55:49;;;;;;;66.90;34.17;;;6.40;81.70;;;;;;5115051;28;20027;-35
2021/03/25 04:58:25;;;;;;;77.30;37.88;;;6.40;81.20;;;;;;5115128;28;20061;-36
2021/03/25 05:00:51;;;;;;;74.28;36.30;;;6.40;81.30;;;;;;5115217;28;20050;-36
2021/03/25 05:03:23;;;;;;;76.65;36.28;;;6.60;80.80;;;;;;5113797;28;20020;-36
2021/03/25 05:05:54;;;;;;;85.05;39.03;;;6.70;79.90;;;;;;5115520;28;20027;-36
2021/03/25 05:08:24;;;;;;;87.13;39.50;;;6.70;80.40;;;;;;5115092;28;20023;-36
2021/03/25 05:10:56;;;;;;;75.28;36.42;;;6.70;80.00;;;;;;5115356;28;20032;-35
2021/03/25 05:13:44;;;;;;;88.70;40.40;;;6.70;80.20;;;;;;5113719;28;20015;-37
2021/03/25 05:16:35;;;;;;;74.78;37.10;;;6.80;80.00;;;;;;5114841;28;20410;-35
2021/03/25 05:19:16;;;;;;;78.00;37.38;;;6.60;80.50;;;;;;5115242;28;20020;-36
2021/03/25 05:21:59;;;;;;;74.60;36.13;;;6.30;81.20;;;;;;5113523;28;20045;-37
2021/03/25 05:24:46;;;;;;;96.97;40.03;;;6.40;81.10;;;;;;5114766;28;20020;-36
2021/03/25 05:27:14;;;;;;;84.07;39.70;;;6.60;80.40;;;;;;5114362;28;20049;-36
2021/03/25 05:29:42;;;;;;;81.38;37.95;;;6.60;80.90;;;;;;5114659;28;20020;-35
2021/03/25 05:32:11;;;;;;;86.55;42.00;;;6.70;80.40;;;;;;5114606;28;20034;-36
2021/03/25 05:34:39;;;;;;;82.13;39.53;;;6.60;80.70;;;;;;5114612;28;20043;-36
2021/03/25 05:37:08;;;;;;;89.70;44.22;;;6.70;80.80;;;;;;5114334;28;20030;-35
2021/03/25 05:39:34;;;;;;;76.65;39.83;;;6.70;80.70;;;;;;5114748;28;20103;-35
2021/03/25 05:42:18;;;;;;;84.93;40.13;;;6.80;80.40;;;;;;5115104;28;20069;-38
2021/03/25 05:45:18;;;;;;;79.45;39.22;;;6.90;79.90;;;;;;5114290;28;20030;-36
2021/03/25 05:48:17;;;;;;;78.70;40.05;;;6.90;79.80;;;;;;5114026;28;20394;-36
2021/03/25 05:50:59;;;;;;;76.78;38.65;;;7.00;79.50;;;;;;5114508;28;20015;-35
2021/03/25 05:54:18;;;;;;;78.57;38.47;;;6.90;79.80;;;;;;5114510;28;20027;-36
2021/03/25 05:57:17;;;;;;;76.43;38.03;;;6.90;80.00;;;;;;5091109;28;20048;-36
2021/03/25 06:00:02;;;;;;;89.38;42.00;;;7.20;78.70;;;;;;5114204;28;20015;-36
2021/03/25 06:02:43;;;;;;;86.05;41.97;;;7.30;78.30;;;;;;5113934;28;20104;-36
2021/03/25 06:05:11;;;;;;;87.70;42.05;;;7.30;78.50;;;;;;5114025;28;20026;-36
2021/03/25 06:07:54;;;;;;;89.47;43.45;;;7.00;79.30;;;;;;5114141;28;20498;-36
2021/03/25 06:10:55;;;;;;;89.90;41.88;;;7.20;78.80;;;;;;5114042;28;20083;-36
2021/03/25 06:13:48;;;;;;;75.22;37.60;;;7.30;78.40;;;;;;5114199;28;20053;-37
2021/03/25 06:16:23;;;;;;;89.30;42.25;;;7.30;78.50;;;;;;5113796;28;20135;-36
2021/03/25 06:19:20;;;;;;;83.13;41.65;;;7.30;78.30;;;;;;5113677;28;20029;-37
2021/03/25 06:22:00;;;;;;;87.35;44.03;;;7.30;78.60;;;;;;5113639;28;20027;-37
2021/03/25 06:24:56;;;;;;;79.88;40.22;;;7.30;78.80;;;;;;5113773;28;20024;-37
2021/03/25 06:27:33;;;;;;;82.47;40.78;;;7.30;78.60;;;;;;5113743;28;20035;-36
2021/03/25 06:30:09;;;;;;;77.70;38.90;;;7.40;78.10;;;;;;5113480;28;20027;-36
2021/03/25 06:32:50;;;;;;;80.15;42.67;;;7.30;78.90;;;;;;5113541;28;20019;-36
2021/03/25 06:35:44;;;;;;;88.50;43.58;;;7.30;79.10;;;;;;5113776;28;20035;-37
2021/03/25 06:38:18;;;;;;;87.63;41.60;;;7.40;78.80;;;;;;5111238;28;20406;-36
2021/03/25 06:41:12;;;;;;;82.50;42.85;;;7.60;77.40;;;;;;5117840;28;20092;-36
2021/03/25 06:43:50;;;;;;;79.22;38.95;;;7.70;77.20;;;;;;5117766;27;20447;-37
2021/03/25 06:46:28;;;;;;;78.45;39.53;;;7.70;77.70;;;;;;5118395;28;20027;-37
2021/03/25 06:48:59;;;;;;;92.28;43.42;;;7.80;77.40;;;;;;5117957;28;20070;-36
2021/03/25 06:51:25;;;;;;;80.55;38.75;;;7.80;76.80;;;;;;5118080;27;20019;-37
2021/03/25 06:54:11;;;;;;;84.07;38.97;;;7.90;76.20;;;;;;5117658;28;20072;-37
2021/03/25 06:56:46;;;;;;;77.93;42.55;;;8.00;76.70;;;;;;5116793;28;20031;-37
2021/03/25 06:59:22;;;;;;;80.18;40.00;;;8.00;76.90;;;;;;5115797;28;20027;-36
2021/03/25 07:01:54;;;;;;;122.88;43.80;;;8.20;76.00;;;;;;5117249;28;20031;-36
2021/03/25 07:04:27;;;;;;;80.90;39.75;;;8.50;76.00;;;;;;5117623;28;20039;-37
2021/03/25 07:06:57;;;;;;;97.35;45.58;;;8.50;74.90;;;;;;5116078;28;20031;-37
2021/03/25 07:09:32;;;;;;;92.28;42.13;;;8.70;74.30;;;;;;5117446;28;20023;-37
2021/03/25 07:12:01;;;;;;;91.82;42.72;;;8.60;74.00;;;;;;5117093;28;20506;-37
2021/03/25 07:14:46;;;;;;;79.75;42.13;;;8.50;74.70;;;;;;5117106;28;20493;-38
2021/03/25 07:17:15;;;;;;;86.43;40.45;;;8.40;74.80;;;;;;5116887;28;20038;-36
2021/03/25 07:19:49;;;;;;;86.72;43.53;;;8.30;75.70;;;;;;5116856;28;20031;-37
2021/03/25 07:22:30;;;;;;;82.07;41.70;;;8.60;74.40;;;;;;5117680;28;20122;-37
2021/03/25 07:25:23;;;;;;;92.75;44.85;;;8.80;74.30;;;;;;5117154;28;20240;-37
2021/03/25 07:27:49;;;;;;;80.30;44.17;;;9.10;73.30;;;;;;5116689;28;20441;-36
2021/03/25 07:30:18;;;;;;;82.97;42.42;;;9.20;72.60;;;;;;5115677;28;20475;-37
2021/03/25 07:32:48;;;;;;;72.82;40.67;;;8.90;73.30;;;;;;5116660;28;20024;-37
2021/03/25 07:35:25;;;;;;;77.95;40.22;;;8.70;74.40;;;;;;5116868;28;20037;-37
2021/03/25 07:37:51;;;;;;;87.60;41.55;;;8.60;75.00;;;;;;5117054;27;20073;-38
2021/03/25 07:40:32;;;;;;;85.72;41.55;;;8.50;75.10;;;;;;5115397;28;20035;-37
2021/03/25 07:43:17;;;;;;;80.35;42.65;;;9.00;73.20;;;;;;5115326;28;20165;-37
2021/03/25 07:45:42;;;;;;;84.40;42.58;;;9.00;73.40;;;;;;5116623;28;20062;-44
2021/03/25 07:48:17;;;;;;;86.10;42.65;;;8.90;73.10;;;;;;5114640;28;20078;-37
2021/03/25 07:50:43;;;;;;;85.22;42.33;;;9.40;71.60;;;;;;5116642;28;20483;-36
2021/03/25 07:53:29;;;;;;;88.40;44.30;;;9.80;70.00;;;;;;5116088;28;20027;-37
2021/03/25 07:56:24;;;;;;;88.28;43.05;;;9.90;69.50;;;;;;5116440;28;20027;-37
2021/03/25 07:58:50;;;;;;;93.35;47.25;;;10.00;69.70;;;;;;5107453;28;20050;-37
2021/03/25 08:01:22;;;;;;;86.68;46.53;;;10.20;68.00;;;;;;5117182;28;20031;-37
2021/03/25 08:03:49;;;;;;;88.60;44.67;;;9.90;68.80;;;;;;5117098;28;20475;-36
2021/03/25 08:06:30;;;;;;;89.88;46.42;;;10.10;68.90;;;;;;5117617;28;20027;-37
2021/03/25 08:09:10;;;;;;;99.47;48.90;;;10.30;68.30;;;;;;5117787;28;20026;-37
2021/03/25 08:11:57;;;;;;;84.22;42.75;;;10.00;68.70;;;;;;5117117;28;20475;-37
2021/03/25 08:14:29;;;;;;;79.85;42.22;;;9.80;69.70;;;;;;5116749;28;20020;-39
2021/03/25 08:17:13;;;;;;;88.47;44.80;;;9.50;71.30;;;;;;5115958;28;20030;-37
2021/03/25 08:19:44;;;;;;;95.80;49.13;;;9.80;71.10;;;;;;5117166;28;20015;-37
2021/03/25 08:22:31;;;;;;;93.35;46.97;;;10.00;70.10;;;;;;5116322;28;20024;-37
2021/03/25 08:25:51;;;;;;;86.82;45.35;;;10.30;69.50;;;;;;5117658;28;20027;-37
2021/03/25 08:28:33;;;;;;;85.15;45.55;;;10.10;69.60;;;;;;5073759;28;20036;-37
2021/03/25 08:31:26;;;;;;;91.78;45.80;;;9.80;70.90;;;;;;5111266;27;20039;-38
2021/03/25 08:34:32;;;;;;;85.60;43.70;;;10.10;70.10;;;;;;5115393;28;20096;-37
2021/03/25 08:37:20;;;;;;;89.18;45.13;;;10.40;69.30;;;;;;5114279;28;20046;-37
2021/03/25 08:39:53;;;;;;;80.72;45.08;;;10.30;69.70;;;;;;5115647;28;20027;-37
2021/03/25 08:42:31;;;;;;;96.95;50.47;;;10.30;68.80;;;;;;5115245;28;20024;-37
2021/03/25 08:45:15;;;;;;;93.25;47.03;;;10.70;67.90;;;;;;5115414;28;20103;-37
2021/03/25 08:47:48;;;;;;;86.00;46.28;;;11.00;66.70;;;;;;5115135;28;20130;-36
2021/03/25 08:50:33;;;;;;;96.95;47.95;;;10.80;67.00;;;;;;5115238;27;20042;-38
2021/03/25 08:53:14;;;;;;;79.65;43.83;;;10.70;67.70;;;;;;5115253;28;20015;-36
2021/03/25 08:55:39;;;;;;;96.82;46.92;;;10.80;66.60;;;;;;5114874;28;20132;-37
2021/03/25 08:58:16;;;;;;;86.95;45.38;;;10.80;67.00;;;;;;5115164;28;20031;-37
2021/03/25 09:00:44;;;;;;;92.57;46.00;;;10.80;67.50;;;;;;5114431;28;20020;-36
2021/03/25 09:03:29;;;;;;;97.05;48.60;;;10.80;67.00;;;;;;5114980;28;20023;-38
2021/03/25 09:06:10;;;;;;;88.40;45.40;;;11.10;66.40;;;;;;5113563;28;20439;-37
2021/03/25 09:08:39;;;;;;;97.57;47.40;;;11.50;64.80;;;;;;5114988;28;20044;-37
2021/03/25 09:11:07;;;;;;;82.82;43.22;;;11.70;63.80;;;;;;5114920;28;20058;-37
2021/03/25 09:13:42;;;;;;;94.25;45.95;;;11.70;63.30;;;;;;5114891;28;20023;-37
2021/03/25 09:16:18;;;;;;;81.20;43.10;;;11.70;63.10;;;;;;5113349;28;20475;-37
2021/03/25 09:18:46;;;;;;;80.18;42.38;;;12.00;61.90;;;;;;5113092;28;20081;-38
2021/03/25 09:21:16;;;;;;;75.30;40.85;;;12.50;60.50;;;;;;5114462;28;20106;-37
2021/03/25 09:24:04;;;;;;;78.95;41.13;;;12.30;59.10;;;;;;5114243;28;20023;-37
2021/03/25 09:26:29;;;;;;;74.88;40.15;;;12.80;58.10;;;;;;5113936;28;20036;-37
2021/03/25 09:31:26;;;;;;;75.28;40.72;;;12.80;57.70;;;;;;5115037;28;20036;-37
2021/03/25 09:34:10;;;;;;;72.10;37.67;;;12.30;59.10;;;;;;5113194;28;20065;-37
2021/03/25 09:36:36;;;;;;;62.35;32.35;;;12.30;58.80;;;;;;5115157;28;20047;-37
2021/03/25 09:39:02;;;;;;;64.43;33.72;;;12.30;56.60;;;;;;5114392;28;20098;-38
2021/03/25 09:41:28;;;;;;;62.38;33.20;;;13.10;55.00;;;;;;5114755;28;20069;-37
2021/03/25 09:43:55;;;;;;;66.63;37.60;;;12.80;55.30;;;;;;5114311;28;20020;-37
2021/03/25 09:46:24;;;;;;;70.43;37.42;;;13.10;55.70;;;;;;5113857;28;20028;-39
2021/03/25 09:48:50;;;;;;;61.90;33.83;;;13.20;55.70;;;;;;5114063;28;20535;-37
2021/03/25 09:51:22;;;;;;;77.53;37.13;;;13.20;54.30;;;;;;5113669;28;20031;-37
2021/03/25 09:53:59;;;;;;;75.13;39.92;;;12.10;59.00;;;;;;5112625;28;20032;-37
2021/03/25 09:56:24;;;;;;;67.45;36.80;;;11.80;60.10;;;;;;5113833;28;20471;-37
2021/03/25 09:58:51;;;;;;;74.88;40.20;;;11.90;59.90;;;;;;5113827;28;20023;-37
2021/03/25 10:01:40;;;;;;;68.32;38.25;;;12.10;59.70;;;;;;5112370;28;20058;-37
2021/03/25 10:04:28;;;;;;;66.30;36.80;;;12.50;58.10;;;;;;5114019;28;20027;-36
2021/03/25 10:07:00;;;;;;;61.70;34.40;;;13.30;55.30;;;;;;5106971;28;20080;-38
2021/03/25 10:09:49;;;;;;;71.38;35.90;;;14.40;52.00;;;;;;5113896;28;20047;-37
2021/03/25 10:12:45;;;;;;;65.68;35.92;;;14.70;49.70;;;;;;5108000;28;20035;-38
2021/03/25 10:15:33;;;;;;;74.90;39.17;;;14.30;49.90;;;;;;5112655;28;20467;-37
2021/03/25 10:18:05;;;;;;;67.80;37.38;;;14.20;51.20;;;;;;5113520;28;20072;-37
2021/03/25 10:20:46;;;;;;;79.80;40.53;;;14.70;49.30;;;;;;5112341;28;20020;-38
2021/03/25 10:23:50;;;;;;;71.65;39.55;;;14.80;49.50;;;;;;5113391;28;20492;-36
2021/03/25 10:26:36;;;;;;;68.55;39.60;;;15.30;48.30;;;;;;5111263;28;20476;-37
2021/03/25 10:29:11;;;;;;;75.05;41.17;;;14.50;50.50;;;;;;5113612;28;20027;-36
2021/03/25 10:31:36;;;;;;;81.15;41.92;;;15.30;48.80;;;;;;5113183;28;20024;-37
2021/03/25 10:34:15;;;;;;;75.55;43.30;;;15.40;47.70;;;;;;5113046;28;20030;-38
2021/03/25 10:36:56;;;;;;;72.30;43.25;;;15.40;48.10;;;;;;5112904;28;20027;-37
2021/03/25 10:39:29;;;;;;;78.45;42.60;;;16.20;47.00;;;;;;5112610;28;20027;-38
2021/03/25 10:41:56;;;;;;;74.93;40.60;;;15.30;48.50;;;;;;5113746;28;20027;-38
2021/03/25 10:44:27;;;;;;;75.20;42.47;;;15.00;49.20;;;;;;5113387;28;20160;-38
2021/03/25 10:46:55;;;;;;;82.45;41.90;;;15.20;49.40;;;;;;5112681;28;20027;-38
2021/03/25 10:49:27;;;;;;;73.93;41.35;;;15.50;48.30;;;;;;5111604;28;20067;-37
2021/03/25 10:51:54;;;;;;;77.13;41.63;;;15.60;47.70;;;;;;5111695;28;20114;-37
2021/03/25 10:54:35;;;;;;;72.78;41.72;;;15.30;48.30;;;;;;5112837;28;20035;-38
2021/03/25 10:57:24;;;;;;;83.45;42.97;;;14.10;51.30;;;;;;5112175;28;20077;-37
2021/03/25 10:59:52;;;;;;;78.05;40.30;;;14.80;50.30;;;;;;5113415;28;20490;-37
2021/03/25 11:02:23;;;;;;;74.72;41.80;;;14.50;51.10;;;;;;5112959;28;20069;-37
2021/03/25 11:04:59;;;;;;;;;;;15.30;48.70;;;;;;5113610;28;20028;-36
2021/03/25 11:07:25;;;;;;;78.20;41.15;;;15.40;48.20;;;;;;5113693;28;19903;-37
2021/03/25 11:09:58;;;;;;;69.40;39.55;;;15.80;47.60;;;;;;5113240;28;20028;-37
2021/03/25 11:12:35;;;;;;;77.25;39.80;;;16.10;46.50;;;;;;5112988;28;20027;-37
2021/03/25 11:15:26;;;;;;;70.25;38.17;;;16.30;45.60;;;;;;5113099;28;20035;-37
2021/03/25 11:17:53;;;;;;;61.80;35.33;;;15.50;47.20;;;;;;5113412;28;20114;-37
2021/03/25 11:20:24;;;;;;;60.45;34.15;;;15.30;47.10;;;;;;5113041;28;20144;-37
2021/03/25 11:22:51;;;;;;;57.42;32.53;;;15.90;46.20;;;;;;5113067;28;20011;-37
2021/03/25 11:25:32;;;;;;;54.20;30.65;;;16.10;46.10;;;;;;5116364;28;20036;-38
2021/03/25 11:28:07;;;;;;;58.50;28.98;;;15.80;46.60;;;;;;5116464;28;20110;-37
2021/03/25 11:30:40;;;;;;;53.83;30.05;;;15.00;49.30;;;;;;5116708;28;20079;-37
2021/03/25 11:33:21;;;;;;;45.67;25.98;;;15.90;47.10;;;;;;5115264;28;20027;-37
2021/03/25 11:35:48;;;;;;;64.18;33.63;;;15.60;48.10;;;;;;5115378;28;20027;-36
2021/03/25 11:38:25;;;;;;;43.55;27.85;;;15.50;48.00;;;;;;5116843;28;20068;-37
2021/03/25 11:40:56;;;;;;;51.17;28.77;;;16.00;47.40;;;;;;5116525;28;20380;-37
2021/03/25 11:43:25;;;;;;;48.50;27.42;;;16.00;47.20;;;;;;5116453;28;20030;-37
2021/03/25 11:45:54;;;;;;;50.97;27.88;;;16.10;46.60;;;;;;5116305;28;20023;-38
2021/03/25 11:48:30;;;;;;;52.20;27.27;;;16.80;44.90;;;;;;5116037;28;20142;-37
2021/03/25 11:51:15;;;;;;;41.20;25.23;;;15.80;47.00;;;;;;5116446;28;20028;-37
2021/03/25 11:53:44;;;;;;;43.40;26.38;;;16.20;45.90;;;;;;5116067;28;20027;-37
2021/03/25 11:56:31;;;;;;;39.22;23.27;;;16.70;44.40;;;;;;5116372;28;20030;-37
2021/03/25 11:58:59;;;;;;;45.10;23.10;;;16.20;45.60;;;;;;5116261;28;20015;-36
2021/03/25 12:01:29;;;;;;;36.97;22.75;;;16.40;45.00;;;;;;5116872;28;20112;-37
2021/03/25 12:04:01;;;;;;;44.30;22.40;;;17.20;42.90;;;;;;5114609;28;20026;-37
2021/03/25 12:06:34;;;;;;;40.20;22.63;;;16.40;44.50;;;;;;5116422;28;20055;-37
2021/03/25 12:09:07;;;;;;;46.15;24.27;;;17.30;42.20;;;;;;5116242;28;20039;-38
2021/03/25 12:11:35;;;;;;;38.53;24.10;;;16.80;43.20;;;;;;5116295;28;20019;-39
2021/03/25 12:14:01;;;;;;;51.08;28.25;;;17.20;42.80;;;;;;5097974;28;20422;-38
2021/03/25 12:16:27;;;;;;;38.17;22.95;;;17.00;44.10;;;;;;5116383;27;20419;-38
2021/03/25 12:18:57;;;;;;;34.00;22.33;;;17.50;42.40;;;;;;5115229;28;20043;-37
2021/03/25 12:21:23;;;;;;;32.85;20.20;;;16.30;44.80;;;;;;5115941;28;20064;-38
2021/03/25 12:23:54;;;;;;;31.10;18.17;;;16.20;45.00;;;;;;5115720;28;20378;-38
2021/03/25 12:26:21;;;;;;;40.22;20.33;;;16.20;45.10;;;;;;5116187;28;20409;-38
2021/03/25 12:28:46;;;;;;;29.88;18.27;;;17.10;43.20;;;;;;5114304;28;20031;-41
2021/03/25 12:31:17;;;;;;;39.08;18.48;;;17.30;42.80;;;;;;5115881;28;20227;-38
2021/03/25 12:33:44;;;;;;;31.75;17.20;;;18.00;40.90;;;;;;5115779;28;20027;-37
2021/03/25 12:36:11;;;;;;;41.67;19.80;;;17.10;42.40;;;;;;5114426;28;20026;-37
2021/03/25 12:38:38;;;;;;;33.20;19.27;;;17.60;41.70;;;;;;5115556;28;20028;-38
2021/03/25 12:41:04;;;;;;;34.20;20.20;;;18.00;41.20;;;;;;5114060;28;20057;-38
2021/03/25 12:43:31;;;;;;;37.67;20.90;;;17.30;42.80;;;;;;5115368;28;20494;-37
2021/03/25 12:46:05;;;;;;;30.13;19.30;;;17.90;41.80;;;;;;5115518;28;20375;-37
2021/03/25 12:48:32;;;;;;;31.42;17.67;;;17.60;42.80;;;;;;5115237;28;20051;-38
2021/03/25 12:51:00;;;;;;;25.25;17.20;;;17.30;42.00;;;;;;5113864;28;20027;-38
2021/03/25 12:53:27;;;;;;;33.00;18.48;;;16.50;43.50;;;;;;5114963;28;20104;-38
2021/03/25 12:55:54;;;;;;;26.25;17.25;;;16.40;44.00;;;;;;5114827;28;20031;-38
2021/03/25 12:58:30;;;;;;;33.88;18.95;;;16.00;45.00;;;;;;5113748;28;20052;-37
2021/03/25 13:00:58;;;;;;;30.83;17.88;;;15.50;46.60;;;;;;5115390;28;20011;-38
2021/03/25 13:03:24;;;;;;;26.58;15.25;;;15.90;46.10;;;;;;5115050;28;20042;-38
2021/03/25 13:05:50;;;;;;;21.10;13.98;;;16.00;43.80;;;;;;5114606;28;20028;-37
2021/03/25 13:08:16;;;;;;;29.15;18.00;;;15.90;44.80;;;;;;5115106;28;20471;-38
2021/03/25 13:10:41;;;;;;;27.77;16.83;;;16.10;44.70;;;;;;5114600;28;20026;-38
2021/03/25 13:13:08;;;;;;;30.63;17.27;;;15.80;45.50;;;;;;5114718;28;20019;-37